sensor_id;sensor_type;location;lat;lon;timestamp;pressure;altitude;pressure_sealevel;temperature;humidity
2188;BME280;1100;52.014;8.540;2023-02-04T00:00:53;101443.41;;;3.90;91.84
2188;BME280;1100;52.014;8.540;2023-02-04T00:03:18;101452.81;;;3.89;92.02
2188;BME280;1100;52.014;8.540;2023-02-04T00:05:43;101457.06;;;3.86;91.70
2188;BME280;1100;52.014;8.540;2023-02-04T00:08:09;101452.38;;;3.86;91.77
2188;BME280;1100;52.014;8.540;2023-02-04T00:10:35;101445.28;;;3.85;91.98
2188;BME280;1100;52.014;8.540;2023-02-04T00:13:02;101448.03;;;3.85;92.01
2188;BME280;1100;52.014;8.540;2023-02-04T00:15:28;101444.84;;;3.83;92.00
2188;BME280;1100;52.014;8.540;2023-02-04T00:17:54;101450.06;;;3.89;92.35
2188;BME280;1100;52.014;8.540;2023-02-04T00:20:20;101453.59;;;3.89;92.41
2188;BME280;1100;52.014;8.540;2023-02-04T00:22:46;101454.03;;;3.91;92.54
2188;BME280;1100;52.014;8.540;2023-02-04T00:25:11;101467.09;;;3.94;92.26
2188;BME280;1100;52.014;8.540;2023-02-04T00:27:37;101466.28;;;3.94;92.39
2188;BME280;1100;52.014;8.540;2023-02-04T00:30:06;101471.06;;;3.97;92.69
2188;BME280;1100;52.014;8.540;2023-02-04T00:32:31;101476.66;;;4.01;92.68
2188;BME280;1100;52.014;8.540;2023-02-04T00:34:57;101468.03;;;4.02;92.59
2188;BME280;1100;52.014;8.540;2023-02-04T00:37:22;101479.03;;;4.02;92.38
2188;BME280;1100;52.014;8.540;2023-02-04T00:39:48;101486.94;;;4.04;92.64
2188;BME280;1100;52.014;8.540;2023-02-04T00:42:13;101491.72;;;4.07;92.37
2188;BME280;1100;52.014;8.540;2023-02-04T00:44:39;101491.38;;;4.08;92.76
2188;BME280;1100;52.014;8.540;2023-02-04T00:47:04;101485.09;;;4.08;92.59
2188;BME280;1100;52.014;8.540;2023-02-04T00:49:30;101486.31;;;4.10;92.40
2188;BME280;1100;52.014;8.540;2023-02-04T00:51:57;101491.44;;;4.12;92.69
2188;BME280;1100;52.014;8.540;2023-02-04T00:54:22;101496.50;;;4.10;92.36
2188;BME280;1100;52.014;8.540;2023-02-04T00:56:47;101498.47;;;4.09;92.53
2188;BME280;1100;52.014;8.540;2023-02-04T00:59:13;101504.41;;;4.11;92.68
2188;BME280;1100;52.014;8.540;2023-02-04T01:01:38;101516.31;;;4.16;92.61
2188;BME280;1100;52.014;8.540;2023-02-04T01:04:04;101521.44;;;4.17;92.66
2188;BME280;1100;52.014;8.540;2023-02-04T01:06:29;101526.59;;;4.19;92.61
2188;BME280;1100;52.014;8.540;2023-02-04T01:08:54;101545.16;;;4.22;93.03
2188;BME280;1100;52.014;8.540;2023-02-04T01:11:20;101550.22;;;4.20;92.87
2188;BME280;1100;52.014;8.540;2023-02-04T01:13:45;101550.22;;;4.20;92.86
2188;BME280;1100;52.014;8.540;2023-02-04T01:16:11;101547.91;;;4.22;92.84
2188;BME280;1100;52.014;8.540;2023-02-04T01:18:37;101552.59;;;4.21;92.90
2188;BME280;1100;52.014;8.540;2023-02-04T01:21:02;101538.47;;;4.23;93.16
2188;BME280;1100;52.014;8.540;2023-02-04T01:23:28;101547.53;;;4.23;92.66
2188;BME280;1100;52.014;8.540;2023-02-04T01:25:53;101550.66;;;4.22;92.60
2188;BME280;1100;52.014;8.540;2023-02-04T01:28:18;101558.47;;;4.20;92.75
2188;BME280;1100;52.014;8.540;2023-02-04T01:30:44;101558.00;;;4.18;92.61
2188;BME280;1100;52.014;8.540;2023-02-04T01:33:09;101561.94;;;4.17;92.89
2188;BME280;1100;52.014;8.540;2023-02-04T01:35:34;101562.38;;;4.19;92.91
2188;BME280;1100;52.014;8.540;2023-02-04T01:37:59;101562.81;;;4.21;93.25
2188;BME280;1100;52.014;8.540;2023-02-04T01:40:25;101575.44;;;4.22;92.84
2188;BME280;1100;52.014;8.540;2023-02-04T01:42:51;101575.44;;;4.22;93.12
2188;BME280;1100;52.014;8.540;2023-02-04T01:45:17;101573.81;;;4.21;93.10
2188;BME280;1100;52.014;8.540;2023-02-04T01:47:43;101584.41;;;4.19;92.74
2188;BME280;1100;52.014;8.540;2023-02-04T01:50:12;101590.25;;;4.17;92.85
2188;BME280;1100;52.014;8.540;2023-02-04T01:52:38;101580.75;;;4.15;93.07
2188;BME280;1100;52.014;8.540;2023-02-04T01:55:12;101575.69;;;4.17;92.86
2188;BME280;1100;52.014;8.540;2023-02-04T01:57:37;101579.25;;;4.17;93.00
2188;BME280;1100;52.014;8.540;2023-02-04T02:00:06;101585.47;;;4.14;92.83
2188;BME280;1100;52.014;8.540;2023-02-04T02:02:50;101595.22;;;4.11;92.97
2188;BME280;1100;52.014;8.540;2023-02-04T02:05:43;101595.94;;;4.08;92.76
2188;BME280;1100;52.014;8.540;2023-02-04T02:08:07;101603.69;;;4.03;92.60
2188;BME280;1100;52.014;8.540;2023-02-04T02:10:33;101592.56;;;3.99;93.04
2188;BME280;1100;52.014;8.540;2023-02-04T02:13:00;101602.25;;;3.93;92.84
2188;BME280;1100;52.014;8.540;2023-02-04T02:15:25;101610.06;;;3.91;92.99
2188;BME280;1100;52.014;8.540;2023-02-04T02:17:53;101613.63;;;3.91;93.12
2188;BME280;1100;52.014;8.540;2023-02-04T02:20:20;101609.69;;;3.92;92.88
2188;BME280;1100;52.014;8.540;2023-02-04T02:22:54;101616.81;;;3.93;93.18
2188;BME280;1100;52.014;8.540;2023-02-04T02:25:22;101632.63;;;3.96;93.15
2188;BME280;1100;52.014;8.540;2023-02-04T02:27:47;101620.34;;;3.94;92.85
2188;BME280;1100;52.014;8.540;2023-02-04T02:30:13;101630.13;;;3.91;93.36
2188;BME280;1100;52.014;8.540;2023-02-04T02:32:42;101633.75;;;3.95;93.40
2188;BME280;1100;52.014;8.540;2023-02-04T02:35:08;101643.72;;;4.00;93.50
2188;BME280;1100;52.014;8.540;2023-02-04T02:37:34;101643.00;;;4.03;93.55
2188;BME280;1100;52.014;8.540;2023-02-04T02:39:59;101659.53;;;4.03;93.21
2188;BME280;1100;52.014;8.540;2023-02-04T02:42:24;101658.34;;;4.04;93.39
2188;BME280;1100;52.014;8.540;2023-02-04T02:44:50;101665.44;;;4.05;93.30
2188;BME280;1100;52.014;8.540;2023-02-04T02:47:18;101658.00;;;4.06;93.13
2188;BME280;1100;52.014;8.540;2023-02-04T02:49:46;101668.66;;;4.07;93.44
2188;BME280;1100;52.014;8.540;2023-02-04T02:52:13;101661.13;;;4.04;93.02
2188;BME280;1100;52.014;8.540;2023-02-04T02:54:39;101664.22;;;4.03;92.98
2188;BME280;1100;52.014;8.540;2023-02-04T02:57:25;101666.50;;;4.01;93.26
2188;BME280;1100;52.014;8.540;2023-02-04T02:59:50;101668.50;;;4.00;93.38
2188;BME280;1100;52.014;8.540;2023-02-04T03:02:19;101661.47;;;4.03;93.22
2188;BME280;1100;52.014;8.540;2023-02-04T03:04:50;101671.66;;;4.02;93.21
2188;BME280;1100;52.014;8.540;2023-02-04T03:07:18;101671.66;;;4.02;93.49
2188;BME280;1100;52.014;8.540;2023-02-04T03:09:44;101663.41;;;4.02;93.41
2188;BME280;1100;52.014;8.540;2023-02-04T03:12:09;101667.69;;;3.99;93.42
2188;BME280;1100;52.014;8.540;2023-02-04T03:14:35;101675.47;;;3.97;93.41
2188;BME280;1100;52.014;8.540;2023-02-04T03:17:03;101686.84;;;3.96;93.12
2188;BME280;1100;52.014;8.540;2023-02-04T03:19:31;101683.63;;;3.94;93.49
2188;BME280;1100;52.014;8.540;2023-02-04T03:21:58;101685.59;;;3.93;93.24
2188;BME280;1100;52.014;8.540;2023-02-04T03:24:24;101678.47;;;3.92;93.49
2188;BME280;1100;52.014;8.540;2023-02-04T03:26:49;101691.47;;;3.92;93.22
2188;BME280;1100;52.014;8.540;2023-02-04T03:29:15;101690.19;;;3.89;93.36
2188;BME280;1100;52.014;8.540;2023-02-04T03:31:40;101695.63;;;3.85;93.21
2188;BME280;1100;52.014;8.540;2023-02-04T03:34:06;101693.13;;;3.80;93.23
2188;BME280;1100;52.014;8.540;2023-02-04T03:36:31;101696.13;;;3.75;92.94
2188;BME280;1100;52.014;8.540;2023-02-04T03:38:57;101701.78;;;3.66;92.81
2188;BME280;1100;52.014;8.540;2023-02-04T03:41:22;101704.38;;;3.59;92.73
2188;BME280;1100;52.014;8.540;2023-02-04T03:43:47;101717.47;;;3.49;92.77
2188;BME280;1100;52.014;8.540;2023-02-04T03:46:13;101712.91;;;3.41;92.87
2188;BME280;1100;52.014;8.540;2023-02-04T03:48:38;101710.75;;;3.34;92.72
2188;BME280;1100;52.014;8.540;2023-02-04T03:51:03;101719.69;;;3.31;93.20
2188;BME280;1100;52.014;8.540;2023-02-04T03:53:29;101717.97;;;3.27;93.14
2188;BME280;1100;52.014;8.540;2023-02-04T03:55:54;101727.75;;;3.24;92.76
2188;BME280;1100;52.014;8.540;2023-02-04T03:58:20;101728.78;;;3.19;92.99
2188;BME280;1100;52.014;8.540;2023-02-04T04:00:45;101738.53;;;3.17;92.87
2188;BME280;1100;52.014;8.540;2023-02-04T04:03:10;101742.75;;;3.14;92.93
2188;BME280;1100;52.014;8.540;2023-02-04T04:05:35;101746.31;;;3.15;93.12
2188;BME280;1100;52.014;8.540;2023-02-04T04:08:01;101748.72;;;3.16;93.26
2188;BME280;1100;52.014;8.540;2023-02-04T04:10:26;101758.19;;;3.19;93.33
2188;BME280;1100;52.014;8.540;2023-02-04T04:12:53;101763.81;;;3.22;93.33
2188;BME280;1100;52.014;8.540;2023-02-04T04:15:19;101765.06;;;3.25;93.48
2188;BME280;1100;52.014;8.540;2023-02-04T04:17:44;101772.53;;;3.24;93.53
2188;BME280;1100;52.014;8.540;2023-02-04T04:20:10;101782.81;;;3.28;93.69
2188;BME280;1100;52.014;8.540;2023-02-04T04:22:36;101783.59;;;3.28;93.53
2188;BME280;1100;52.014;8.540;2023-02-04T04:25:01;101783.59;;;3.28;93.14
2188;BME280;1100;52.014;8.540;2023-02-04T04:27:27;101804.47;;;3.29;93.32
2188;BME280;1100;52.014;8.540;2023-02-04T04:29:53;101805.25;;;3.30;93.36
2188;BME280;1100;52.014;8.540;2023-02-04T04:32:20;101796.91;;;3.26;93.20
2188;BME280;1100;52.014;8.540;2023-02-04T04:34:45;101793.81;;;3.28;93.19
2188;BME280;1100;52.014;8.540;2023-02-04T04:37:10;101805.16;;;3.26;93.22
2188;BME280;1100;52.014;8.540;2023-02-04T04:39:36;101804.22;;;3.22;93.16
2188;BME280;1100;52.014;8.540;2023-02-04T04:42:01;101797.50;;;3.19;93.42
2188;BME280;1100;52.014;8.540;2023-02-04T04:44:26;101795.78;;;3.15;92.97
2188;BME280;1100;52.014;8.540;2023-02-04T04:46:52;101807.00;;;3.09;93.23
2188;BME280;1100;52.014;8.540;2023-02-04T04:49:17;101803.34;;;3.05;92.98
2188;BME280;1100;52.014;8.540;2023-02-04T04:51:42;101806.31;;;3.00;93.27
2188;BME280;1100;52.014;8.540;2023-02-04T04:54:08;101808.97;;;2.96;93.25
2188;BME280;1100;52.014;8.540;2023-02-04T04:56:33;101826.47;;;2.92;93.27
2188;BME280;1100;52.014;8.540;2023-02-04T04:58:58;101834.59;;;2.88;93.15
2188;BME280;1100;52.014;8.540;2023-02-04T05:01:24;101836.53;;;2.88;93.05
2188;BME280;1100;52.014;8.540;2023-02-04T05:03:49;101838.38;;;2.83;93.09
2188;BME280;1100;52.014;8.540;2023-02-04T05:06:15;101836.31;;;2.80;92.91
2188;BME280;1100;52.014;8.540;2023-02-04T05:08:40;101833.91;;;2.79;93.25
2188;BME280;1100;52.014;8.540;2023-02-04T05:11:06;101827.50;;;2.74;92.80
2188;BME280;1100;52.014;8.540;2023-02-04T05:13:31;101828.97;;;2.72;93.17
2188;BME280;1100;52.014;8.540;2023-02-04T05:15:56;101840.63;;;2.69;92.92
2188;BME280;1100;52.014;8.540;2023-02-04T05:18:22;101845.69;;;2.67;93.08
2188;BME280;1100;52.014;8.540;2023-02-04T05:20:47;101847.16;;;2.64;93.20
2188;BME280;1100;52.014;8.540;2023-02-04T05:23:12;101852.50;;;2.60;93.22
2188;BME280;1100;52.014;8.540;2023-02-04T05:25:38;101852.50;;;2.60;93.16
2188;BME280;1100;52.014;8.540;2023-02-04T05:28:03;101862.72;;;2.60;93.13
2188;BME280;1100;52.014;8.540;2023-02-04T05:30:29;101866.16;;;2.57;93.09
2188;BME280;1100;52.014;8.540;2023-02-04T05:32:54;101865.19;;;2.53;92.83
2188;BME280;1100;52.014;8.540;2023-02-04T05:35:19;101862.00;;;2.51;92.93
2188;BME280;1100;52.014;8.540;2023-02-04T05:37:45;101861.53;;;2.48;92.99
2188;BME280;1100;52.014;8.540;2023-02-04T05:40:11;101873.53;;;2.44;92.71
2188;BME280;1100;52.014;8.540;2023-02-04T05:42:36;101876.50;;;2.39;92.89
2188;BME280;1100;52.014;8.540;2023-02-04T05:45:02;101882.22;;;2.33;92.69
2188;BME280;1100;52.014;8.540;2023-02-04T05:47:27;101884.34;;;2.28;93.05
2188;BME280;1100;52.014;8.540;2023-02-04T05:49:53;101893.94;;;2.21;92.68
2188;BME280;1100;52.014;8.540;2023-02-04T05:52:18;101902.38;;;2.16;92.96
2188;BME280;1100;52.014;8.540;2023-02-04T05:54:44;101907.72;;;2.13;92.90
2188;BME280;1100;52.014;8.540;2023-02-04T05:57:09;101913.06;;;2.09;92.95
2188;BME280;1100;52.014;8.540;2023-02-04T05:59:34;101908.94;;;2.03;92.90
2188;BME280;1100;52.014;8.540;2023-02-04T06:02:00;101915.56;;;2.02;92.99
2188;BME280;1100;52.014;8.540;2023-02-04T06:04:25;101921.88;;;2.02;92.79
2188;BME280;1100;52.014;8.540;2023-02-04T06:06:50;101919.78;;;1.99;92.99
2188;BME280;1100;52.014;8.540;2023-02-04T06:09:16;101923.19;;;1.96;92.72
2188;BME280;1100;52.014;8.540;2023-02-04T06:11:41;101923.88;;;1.93;93.00
2188;BME280;1100;52.014;8.540;2023-02-04T06:14:06;101921.78;;;1.90;92.74
2188;BME280;1100;52.014;8.540;2023-02-04T06:16:32;101927.94;;;1.86;92.80
2188;BME280;1100;52.014;8.540;2023-02-04T06:18:57;101922.66;;;1.81;92.51
2188;BME280;1100;52.014;8.540;2023-02-04T06:21:22;101931.06;;;1.76;92.49
2188;BME280;1100;52.014;8.540;2023-02-04T06:23:48;101931.28;;;1.71;92.80
2188;BME280;1100;52.014;8.540;2023-02-04T06:26:13;101931.47;;;1.66;92.95
2188;BME280;1100;52.014;8.540;2023-02-04T06:28:38;101941.94;;;1.64;92.78
2188;BME280;1100;52.014;8.540;2023-02-04T06:31:04;101941.81;;;1.60;92.70
2188;BME280;1100;52.014;8.540;2023-02-04T06:33:29;101948.09;;;1.60;92.94
2188;BME280;1100;52.014;8.540;2023-02-04T06:35:54;101949.72;;;1.61;92.88
2188;BME280;1100;52.014;8.540;2023-02-04T06:38:20;101951.16;;;1.59;92.53
2188;BME280;1100;52.014;8.540;2023-02-04T06:40:45;101954.56;;;1.56;92.60
2188;BME280;1100;52.014;8.540;2023-02-04T06:43:17;101958.31;;;1.51;92.87
2188;BME280;1100;52.014;8.540;2023-02-04T06:45:43;101961.03;;;1.51;92.49
2188;BME280;1100;52.014;8.540;2023-02-04T06:48:08;101964.59;;;1.52;93.12
2188;BME280;1100;52.014;8.540;2023-02-04T06:50:33;101964.94;;;1.50;92.92
2188;BME280;1100;52.014;8.540;2023-02-04T06:52:59;101973.47;;;1.48;92.79
2188;BME280;1100;52.014;8.540;2023-02-04T06:55:24;101986.38;;;1.48;92.72
2188;BME280;1100;52.014;8.540;2023-02-04T06:57:49;101980.44;;;1.46;92.83
2188;BME280;1100;52.014;8.540;2023-02-04T07:00:15;101982.69;;;1.44;92.86
2188;BME280;1100;52.014;8.540;2023-02-04T07:02:40;101985.28;;;1.40;92.78
2188;BME280;1100;52.014;8.540;2023-02-04T07:05:06;101997.72;;;1.38;92.80
2188;BME280;1100;52.014;8.540;2023-02-04T07:07:32;101998.38;;;1.34;92.58
2188;BME280;1100;52.014;8.540;2023-02-04T07:09:57;102006.09;;;1.32;92.59
2188;BME280;1100;52.014;8.540;2023-02-04T07:12:23;102001.94;;;1.26;92.58
2188;BME280;1100;52.014;8.540;2023-02-04T07:14:48;101997.75;;;1.20;92.24
2188;BME280;1100;52.014;8.540;2023-02-04T07:17:13;102005.38;;;1.14;92.51
2188;BME280;1100;52.014;8.540;2023-02-04T07:19:38;102001.66;;;1.10;92.26
2188;BME280;1100;52.014;8.540;2023-02-04T07:22:04;102001.97;;;1.08;92.30
2188;BME280;1100;52.014;8.540;2023-02-04T07:24:30;102001.19;;;1.08;92.60
2188;BME280;1100;52.014;8.540;2023-02-04T07:26:55;102012.94;;;1.08;92.75
2188;BME280;1100;52.014;8.540;2023-02-04T07:29:20;102009.25;;;1.04;92.36
2188;BME280;1100;52.014;8.540;2023-02-04T07:31:46;102016.03;;;0.98;92.21
2188;BME280;1100;52.014;8.540;2023-02-04T07:34:14;102020.56;;;0.94;92.44
2188;BME280;1100;52.014;8.540;2023-02-04T07:36:40;102022.31;;;0.90;92.54
2188;BME280;1100;52.014;8.540;2023-02-04T07:39:06;102018.63;;;0.85;92.49
2188;BME280;1100;52.014;8.540;2023-02-04T07:41:32;102028.44;;;0.86;92.57
2188;BME280;1100;52.014;8.540;2023-02-04T07:43:57;102036.50;;;0.92;92.51
2188;BME280;1100;52.014;8.540;2023-02-04T07:46:23;102038.91;;;0.93;92.66
2188;BME280;1100;52.014;8.540;2023-02-04T07:48:49;102041.31;;;0.95;92.57
2188;BME280;1100;52.014;8.540;2023-02-04T07:51:14;102041.31;;;0.95;92.32
2188;BME280;1100;52.014;8.540;2023-02-04T07:53:39;102040.19;;;0.96;92.37
2188;BME280;1100;52.014;8.540;2023-02-04T07:56:05;102042.28;;;0.99;92.42
2188;BME280;1100;52.014;8.540;2023-02-04T07:58:30;102057.41;;;1.05;92.50
2188;BME280;1100;52.014;8.540;2023-02-04T08:00:56;102057.75;;;1.13;92.73
2188;BME280;1100;52.014;8.540;2023-02-04T08:03:21;102053.69;;;1.19;92.54
2188;BME280;1100;52.014;8.540;2023-02-04T08:05:46;102058.50;;;1.31;92.88
2188;BME280;1100;52.014;8.540;2023-02-04T08:08:12;102049.63;;;1.43;92.90
2188;BME280;1100;52.014;8.540;2023-02-04T08:10:37;102053.91;;;1.53;93.07
2188;BME280;1100;52.014;8.540;2023-02-04T08:13:02;102060.03;;;1.58;93.09
2188;BME280;1100;52.014;8.540;2023-02-04T08:15:28;102065.16;;;1.69;92.66
2188;BME280;1100;52.014;8.540;2023-02-04T08:17:53;102060.25;;;1.83;92.73
2188;BME280;1100;52.014;8.540;2023-02-04T08:20:18;102067.91;;;1.99;92.72
2188;BME280;1100;52.014;8.540;2023-02-04T08:22:44;102066.69;;;2.18;92.58
2188;BME280;1100;52.014;8.540;2023-02-04T08:25:10;102061.72;;;2.32;92.70
2188;BME280;1100;52.014;8.540;2023-02-04T08:27:36;102070.91;;;2.36;92.64
2188;BME280;1100;52.014;8.540;2023-02-04T08:30:02;102075.25;;;2.38;92.74
2188;BME280;1100;52.014;8.540;2023-02-04T08:32:27;102080.91;;;2.41;92.67
2188;BME280;1100;52.014;8.540;2023-02-04T08:34:55;102086.84;;;2.43;92.55
2188;BME280;1100;52.014;8.540;2023-02-04T08:37:20;102094.97;;;2.61;92.46
2188;BME280;1100;52.014;8.540;2023-02-04T08:39:46;102093.25;;;2.78;92.50
2188;BME280;1100;52.014;8.540;2023-02-04T08:42:13;102107.28;;;2.97;92.35
2188;BME280;1100;52.014;8.540;2023-02-04T08:44:39;102100.34;;;3.13;92.31
2188;BME280;1100;52.014;8.540;2023-02-04T08:47:05;102104.44;;;3.28;92.13
2188;BME280;1100;52.014;8.540;2023-02-04T08:49:30;102110.06;;;3.44;92.19
2188;BME280;1100;52.014;8.540;2023-02-04T08:51:55;102111.81;;;3.61;92.41
2188;BME280;1100;52.014;8.540;2023-02-04T08:54:21;102120.69;;;3.79;92.32
2188;BME280;1100;52.014;8.540;2023-02-04T08:56:46;102127.59;;;3.98;92.43
2188;BME280;1100;52.014;8.540;2023-02-04T08:59:11;102126.56;;;4.15;92.13
2188;BME280;1100;52.014;8.540;2023-02-04T09:01:37;102131.22;;;4.40;92.33
2188;BME280;1100;52.014;8.540;2023-02-04T09:04:02;102127.22;;;4.49;91.50
2188;BME280;1100;52.014;8.540;2023-02-04T09:06:27;102125.72;;;4.93;91.12
2188;BME280;1100;52.014;8.540;2023-02-04T09:08:53;102132.91;;;5.10;91.49
2188;BME280;1100;52.014;8.540;2023-02-04T09:11:18;102137.22;;;4.95;91.51
2188;BME280;1100;52.014;8.540;2023-02-04T09:13:43;102138.72;;;4.80;91.21
2188;BME280;1100;52.014;8.540;2023-02-04T09:16:09;102131.44;;;4.59;91.42
2188;BME280;1100;52.014;8.540;2023-02-04T09:18:35;102140.09;;;4.45;91.57
2188;BME280;1100;52.014;8.540;2023-02-04T09:21:00;102134.69;;;4.36;91.93
2188;BME280;1100;52.014;8.540;2023-02-04T09:23:25;102132.53;;;4.30;91.68
2188;BME280;1100;52.014;8.540;2023-02-04T09:25:51;102127.81;;;4.30;91.70
2188;BME280;1100;52.014;8.540;2023-02-04T09:28:16;102143.28;;;4.35;91.67
2188;BME280;1100;52.014;8.540;2023-02-04T09:30:44;102143.28;;;4.35;91.57
2188;BME280;1100;52.014;8.540;2023-02-04T09:33:10;102148.34;;;4.33;91.98
2188;BME280;1100;52.014;8.540;2023-02-04T09:35:36;102152.47;;;4.39;91.98
2188;BME280;1100;52.014;8.540;2023-02-04T09:38:02;102154.63;;;4.46;91.36
2188;BME280;1100;52.014;8.540;2023-02-04T09:40:32;102155.78;;;4.45;91.38
2188;BME280;1100;52.014;8.540;2023-02-04T09:42:59;102161.06;;;4.50;91.33
2188;BME280;1100;52.014;8.540;2023-02-04T09:45:26;102165.53;;;4.55;91.49
2188;BME280;1100;52.014;8.540;2023-02-04T09:47:53;102164.59;;;4.63;91.24
2188;BME280;1100;52.014;8.540;2023-02-04T09:50:22;102169.91;;;5.09;90.72
2188;BME280;1100;52.014;8.540;2023-02-04T09:52:53;102166.91;;;5.59;90.55
2188;BME280;1100;52.014;8.540;2023-02-04T09:55:21;102170.78;;;6.03;90.68
2188;BME280;1100;52.014;8.540;2023-02-04T09:57:49;102174.91;;;6.26;90.66
2188;BME280;1100;52.014;8.540;2023-02-04T10:00:26;102179.78;;;6.32;89.87
2188;BME280;1100;52.014;8.540;2023-02-04T10:02:52;102172.75;;;6.35;89.67
2188;BME280;1100;52.014;8.540;2023-02-04T10:05:24;102173.78;;;6.46;89.50
2188;BME280;1100;52.014;8.540;2023-02-04T10:07:51;102174.84;;;6.58;89.80
2188;BME280;1100;52.014;8.540;2023-02-04T10:10:19;102182.31;;;6.57;89.70
2188;BME280;1100;52.014;8.540;2023-02-04T10:12:49;102181.34;;;6.66;89.38
2188;BME280;1100;52.014;8.540;2023-02-04T10:15:17;102186.47;;;6.83;89.29
2188;BME280;1100;52.014;8.540;2023-02-04T10:17:47;102188.69;;;7.14;89.18
2188;BME280;1100;52.014;8.540;2023-02-04T10:20:15;102188.16;;;7.28;89.75
2188;BME280;1100;52.014;8.540;2023-02-04T10:22:40;102192.22;;;6.94;89.21
2188;BME280;1100;52.014;8.540;2023-02-04T10:25:26;102194.63;;;6.96;89.11
2188;BME280;1100;52.014;8.540;2023-02-04T10:27:54;102205.56;;;7.48;89.21
2188;BME280;1100;52.014;8.540;2023-02-04T10:30:21;102202.41;;;7.93;89.01
2188;BME280;1100;52.014;8.540;2023-02-04T10:32:47;102214.47;;;8.28;88.37
2188;BME280;1100;52.014;8.540;2023-02-04T10:35:15;102216.28;;;8.43;87.30
2188;BME280;1100;52.014;8.540;2023-02-04T10:37:40;102201.09;;;8.33;87.03
2188;BME280;1100;52.014;8.540;2023-02-04T10:40:25;102197.56;;;8.37;87.58
2188;BME280;1100;52.014;8.540;2023-02-04T10:42:50;102195.72;;;8.17;86.81
2188;BME280;1100;52.014;8.540;2023-02-04T10:45:24;102203.75;;;8.03;86.90
2188;BME280;1100;52.014;8.540;2023-02-04T10:47:51;102205.88;;;8.09;87.93
2188;BME280;1100;52.014;8.540;2023-02-04T10:50:18;102210.03;;;8.23;87.87
2188;BME280;1100;52.014;8.540;2023-02-04T10:52:52;102207.81;;;8.09;88.11
2188;BME280;1100;52.014;8.540;2023-02-04T10:55:21;102215.22;;;8.01;88.56
2188;BME280;1100;52.014;8.540;2023-02-04T10:57:50;102209.28;;;7.79;88.26
2188;BME280;1100;52.014;8.540;2023-02-04T11:00:23;102216.75;;;7.55;88.48
2188;BME280;1100;52.014;8.540;2023-02-04T11:03:02;102212.09;;;7.40;88.67
2188;BME280;1100;52.014;8.540;2023-02-04T11:05:31;102209.69;;;7.58;88.74
2188;BME280;1100;52.014;8.540;2023-02-04T11:07:57;102212.59;;;7.65;88.22
2188;BME280;1100;52.014;8.540;2023-02-04T11:10:27;102211.06;;;7.68;88.70
2188;BME280;1100;52.014;8.540;2023-02-04T11:13:05;102211.78;;;7.65;89.35
2188;BME280;1100;52.014;8.540;2023-02-04T11:15:41;102209.09;;;7.48;88.76
2188;BME280;1100;52.014;8.540;2023-02-04T11:18:28;102199.16;;;7.24;88.61
2188;BME280;1100;52.014;8.540;2023-02-04T11:20:56;102201.63;;;7.29;89.02
2188;BME280;1100;52.014;8.540;2023-02-04T11:37:03;102206.22;;;7.21;88.56
2188;BME280;1100;52.014;8.540;2023-02-04T11:39:41;102208.84;;;7.34;88.94
2188;BME280;1100;52.014;8.540;2023-02-04T11:42:20;102209.13;;;7.29;89.12
2188;BME280;1100;52.014;8.540;2023-02-04T11:44:51;102213.25;;;7.19;88.88
2188;BME280;1100;52.014;8.540;2023-02-04T11:47:17;102209.19;;;7.13;88.47
2188;BME280;1100;52.014;8.540;2023-02-04T11:49:45;102210.72;;;7.30;88.56
2188;BME280;1100;52.014;8.540;2023-02-04T11:52:16;102213.22;;;7.15;88.88
2188;BME280;1100;52.014;8.540;2023-02-04T11:54:51;102215.56;;;6.97;89.30
2188;BME280;1100;52.014;8.540;2023-02-04T11:57:17;102213.66;;;6.81;89.22
2188;BME280;1100;52.014;8.540;2023-02-04T11:59:42;102222.91;;;6.53;89.46
2188;BME280;1100;52.014;8.540;2023-02-04T12:02:17;102224.34;;;6.31;89.47
2188;BME280;1100;52.014;8.540;2023-02-04T12:04:51;102216.16;;;6.34;89.78
2188;BME280;1100;52.014;8.540;2023-02-04T12:07:22;102217.66;;;6.32;89.60
2188;BME280;1100;52.014;8.540;2023-02-04T12:09:48;102217.09;;;6.58;89.47
2188;BME280;1100;52.014;8.540;2023-02-04T12:12:22;102218.31;;;6.77;88.91
2188;BME280;1100;52.014;8.540;2023-02-04T12:14:56;102218.94;;;6.70;88.36
2188;BME280;1100;52.014;8.540;2023-02-04T12:17:21;102219.13;;;6.78;88.62
2188;BME280;1100;52.014;8.540;2023-02-04T12:19:46;102219.50;;;6.76;88.67
2188;BME280;1100;52.014;8.540;2023-02-04T12:22:12;102222.53;;;6.71;88.92
2188;BME280;1100;52.014;8.540;2023-02-04T12:24:38;102228.13;;;6.75;89.04
2188;BME280;1100;52.014;8.540;2023-02-04T12:27:04;102229.97;;;6.87;88.74
2188;BME280;1100;52.014;8.540;2023-02-04T12:29:29;102226.28;;;6.98;88.57
2188;BME280;1100;52.014;8.540;2023-02-04T12:31:54;102225.63;;;7.05;89.24
2188;BME280;1100;52.014;8.540;2023-02-04T12:34:20;102225.66;;;7.25;89.36
2188;BME280;1100;52.014;8.540;2023-02-04T12:36:45;102230.97;;;7.34;89.11
2188;BME280;1100;52.014;8.540;2023-02-04T12:39:10;102231.13;;;7.41;88.54
2188;BME280;1100;52.014;8.540;2023-02-04T12:41:36;102236.50;;;7.54;88.11
2188;BME280;1100;52.014;8.540;2023-02-04T12:44:01;102235.25;;;7.51;88.06
2188;BME280;1100;52.014;8.540;2023-02-04T12:46:28;102243.19;;;7.33;88.74
2188;BME280;1100;52.014;8.540;2023-02-04T12:48:53;102251.81;;;7.28;88.42
2188;BME280;1100;52.014;8.540;2023-02-04T12:51:18;102237.78;;;7.20;88.18
2188;BME280;1100;52.014;8.540;2023-02-04T12:53:46;102238.09;;;7.15;87.53
2188;BME280;1100;52.014;8.540;2023-02-04T12:56:12;102237.16;;;7.27;88.10
2188;BME280;1100;52.014;8.540;2023-02-04T12:58:38;102238.38;;;7.30;88.54
2188;BME280;1100;52.014;8.540;2023-02-04T13:01:03;102243.06;;;7.26;88.76
2188;BME280;1100;52.014;8.540;2023-02-04T13:03:29;102238.16;;;6.99;89.19
2188;BME280;1100;52.014;8.540;2023-02-04T13:05:54;102242.03;;;6.62;89.27
2188;BME280;1100;52.014;8.540;2023-02-04T13:08:20;102244.38;;;6.28;89.17
2188;BME280;1100;52.014;8.540;2023-02-04T13:10:45;102241.91;;;6.22;89.37
2188;BME280;1100;52.014;8.540;2023-02-04T13:13:16;102245.19;;;6.28;89.57
2188;BME280;1100;52.014;8.540;2023-02-04T13:15:41;102235.13;;;6.20;89.73
2188;BME280;1100;52.014;8.540;2023-02-04T13:18:06;102232.88;;;6.09;89.43
2188;BME280;1100;52.014;8.540;2023-02-04T13:20:32;102235.91;;;6.04;89.46
2188;BME280;1100;52.014;8.540;2023-02-04T13:22:57;102232.44;;;6.07;89.24
2188;BME280;1100;52.014;8.540;2023-02-04T13:25:23;102237.81;;;6.16;89.31
2188;BME280;1100;52.014;8.540;2023-02-04T13:27:48;102234.03;;;6.25;89.21
2188;BME280;1100;52.014;8.540;2023-02-04T13:30:14;102233.06;;;6.33;89.73
2188;BME280;1100;52.014;8.540;2023-02-04T13:32:40;102235.03;;;6.32;89.50